Time;durP1;ratioP1;P1;durP2;ratioP2;P2;SDS_P1;SDS_P2;PMS_P1;PMS_P2;Temp;Humidity;BMP_temperature;BMP_pressure;BME280_temperature;BME280_humidity;BME280_pressure;Samples;Min_cycle;Max_cycle;Signal;HPM_P1;HPM_P2
2023/10/20 00:02:04;;;;;;;7.18;4.57;;;;;;;15.24;73.38;98462.75;5078247;28;20451;-65
2023/10/20 00:04:33;;;;;;;6.80;4.03;;;;;;;15.26;73.13;98465.94;5078729;28;20048;-65
2023/10/20 00:07:03;;;;;;;5.18;4.18;;;;;;;15.25;73.14;98464.34;5071387;28;20052;-66
2023/10/20 00:09:31;;;;;;;10.73;4.18;;;;;;;15.25;73.14;98462.44;5078694;28;20045;-66
2023/10/20 00:11:59;;;;;;;6.30;3.63;;;;;;;15.24;73.03;98455.41;5077229;28;20056;-66
2023/10/20 00:14:27;;;;;;;9.65;3.85;;;;;;;15.24;73.11;98452.72;5075381;28;20088;-65
2023/10/20 00:16:55;;;;;;;6.80;3.70;;;;;;;15.24;72.93;98441.88;5075731;28;20107;-66
2023/10/20 00:19:23;;;;;;;5.63;3.65;;;;;;;15.22;73.11;98440.59;5075624;28;20079;-66
2023/10/20 00:21:52;;;;;;;5.55;3.55;;;;;;;15.24;73.16;98443.78;5063328;28;20052;-65
2023/10/20 00:24:22;;;;;;;7.35;4.20;;;;;;;15.24;73.42;98438.38;5078648;28;20056;-66
2023/10/20 00:26:50;;;;;;;8.32;4.03;;;;;;;15.24;73.34;98432.97;5073245;28;20057;-66
2023/10/20 00:29:19;;;;;;;7.70;3.80;;;;;;;15.22;73.31;98419.75;5071374;28;21359;-67
2023/10/20 00:31:47;;;;;;;6.43;3.70;;;;;;;15.23;73.30;98415.13;5074874;28;20080;-67
2023/10/20 00:34:15;;;;;;;10.63;5.07;;;;;;;15.23;73.61;98398.91;5072366;28;20053;-66
2023/10/20 00:36:43;;;;;;;6.55;4.22;;;;;;;15.22;73.55;98394.59;5078437;28;20053;-66
2023/10/20 00:39:12;;;;;;;8.63;4.40;;;;;;;15.21;73.58;98391.09;5075372;28;20044;-66
2023/10/20 00:41:42;;;;;;;7.63;4.32;;;;;;;15.22;73.92;98384.56;5079755;28;20048;-66
2023/10/20 00:44:10;;;;;;;5.85;4.07;;;;;;;15.21;73.67;98372.16;5081746;28;20063;-66
2023/10/20 00:46:38;;;;;;;7.05;4.68;;;;;;;15.20;73.79;98357.03;5083812;28;20494;-66
2023/10/20 00:49:08;;;;;;;6.25;4.80;;;;;;;15.17;73.60;98362.28;5079050;28;20045;-65
2023/10/20 00:51:36;;;;;;;6.63;4.22;;;;;;;15.20;73.52;98361.66;5074058;28;20041;-66
2023/10/20 00:54:04;;;;;;;7.88;4.30;;;;;;;15.19;73.53;98358.16;5077552;28;20067;-66
2023/10/20 00:56:33;;;;;;;8.70;4.30;;;;;;;15.18;73.32;98351.13;5072464;28;20045;-66
2023/10/20 00:59:02;;;;;;;7.18;4.70;;;;;;;15.19;73.39;98349.22;5082527;28;20053;-66
2023/10/20 01:01:30;;;;;;;8.98;4.20;;;;;;;15.19;73.37;98343.81;5083333;28;20462;-66
2023/10/20 01:03:58;;;;;;;6.03;4.07;;;;;;;15.19;73.29;98339.22;5081913;28;20048;-66
2023/10/20 01:06:26;;;;;;;7.10;4.32;;;;;;;15.20;73.54;98338.09;5081720;28;20078;-66
2023/10/20 01:08:55;;;;;;;6.47;4.70;;;;;;;15.20;73.40;98331.88;5083274;28;20052;-66
2023/10/20 01:11:23;;;;;;;6.65;4.15;;;;;;;15.19;73.59;98338.41;5079222;28;20040;-66
2023/10/20 01:13:51;;;;;;;6.80;4.63;;;;;;;15.20;73.66;98323.78;5079368;28;20057;-66
2023/10/20 01:16:20;;;;;;;6.35;4.30;;;;;;;15.20;73.41;98324.56;5077081;28;20097;-66
2023/10/20 01:18:49;;;;;;;6.57;4.50;;;;;;;15.20;73.51;98318.34;5081265;28;20108;-65
2023/10/20 01:21:17;;;;;;;6.07;4.80;;;;;;;15.19;73.37;98314.84;5075511;28;20048;-65
2023/10/20 01:23:45;;;;;;;5.53;4.32;;;;;;;15.20;73.42;98304.84;5079376;28;20048;-65
2023/10/20 01:26:14;;;;;;;5.85;4.38;;;;;;;15.18;73.41;98294.31;5081590;28;20041;-66
2023/10/20 01:28:42;;;;;;;6.85;4.72;;;;;;;15.20;73.30;98283.97;5075099;28;20041;-65
2023/10/20 01:31:10;;;;;;;6.38;3.88;;;;;;;15.19;73.50;98289.72;5073920;28;20052;-65
2023/10/20 01:33:38;;;;;;;6.40;4.15;;;;;;;15.19;73.32;98292.41;5079619;28;20052;-65
2023/10/20 01:36:06;;;;;;;7.75;4.35;;;;;;;15.19;73.45;98295.91;5081794;28;20406;-65
2023/10/20 01:38:33;;;;;;;5.32;4.00;;;;;;;15.18;73.45;98297.03;5077544;28;20120;-65
2023/10/20 01:41:02;;;;;;;5.85;4.25;;;;;;;15.18;73.26;98290.81;5073052;28;20056;-66
2023/10/20 01:43:31;;;;;;;7.18;4.35;;;;;;;15.18;73.57;98288.13;5081129;28;20048;-66
2023/10/20 01:45:59;;;;;;;6.72;4.72;;;;;;;15.18;73.26;98286.22;5079343;28;20117;-65
2023/10/20 01:48:26;;;;;;;6.72;4.45;;;;;;;15.19;73.44;98276.19;5079494;28;20044;-65
2023/10/20 01:50:55;;;;;;;6.72;4.78;;;;;;;15.19;73.47;98262.66;5076052;28;20059;-65
2023/10/20 01:53:23;;;;;;;6.45;4.18;;;;;;;15.18;73.15;98263.75;5083777;28;20112;-66
2023/10/20 01:55:51;;;;;;;5.55;4.00;;;;;;;15.15;73.21;98259.78;5078161;28;20045;-65
2023/10/20 01:58:19;;;;;;;6.20;4.35;;;;;;;15.17;73.43;98252.16;5083867;28;20041;-65
2023/10/20 02:00:50;;;;;;;8.55;4.57;;;;;;;15.17;73.22;98251.34;5080599;28;20073;-66
2023/10/20 02:03:19;;;;;;;8.80;4.85;;;;;;;15.18;73.29;98247.53;5080400;28;20529;-66
2023/10/20 02:05:47;;;;;;;6.88;4.25;;;;;;;15.17;73.54;98229.69;5074360;28;20136;-66
2023/10/20 02:08:16;;;;;;;8.02;4.63;;;;;;;15.14;73.52;98225.72;5079878;28;20041;-66
2023/10/20 02:10:45;;;;;;;7.32;4.65;;;;;;;15.15;73.49;98234.63;5079073;28;20041;-66
2023/10/20 02:13:13;;;;;;;6.68;4.30;;;;;;;15.15;73.56;98229.22;5075319;28;20109;-66
2023/10/20 02:15:46;;;;;;;5.07;4.20;;;;;;;15.15;73.33;98226.53;5076976;28;20387;-66
2023/10/20 02:18:15;;;;;;;6.50;4.97;;;;;;;15.14;73.43;98225.72;5077558;28;20071;-66
2023/10/20 02:20:43;;;;;;;6.35;4.80;;;;;;;15.14;73.42;98220.31;5081491;28;20079;-65
2023/10/20 02:23:12;;;;;;;8.20;5.65;;;;;;;15.14;73.54;98211.41;5074743;28;20107;-66
2023/10/20 02:25:39;;;;;;;10.18;6.38;;;;;;;15.14;73.76;98203.28;5075090;28;20076;-66
2023/10/20 02:28:07;;;;;;;7.22;4.75;;;;;;;15.13;73.92;98191.66;5075672;28;20048;-66
2023/10/20 02:30:35;;;;;;;8.00;4.57;;;;;;;15.12;73.79;98195.47;5075749;28;20048;-66
2023/10/20 02:33:03;;;;;;;7.85;5.32;;;;;;;15.12;73.80;98198.19;5079219;28;20041;-66
2023/10/20 02:35:32;;;;;;;10.68;4.90;;;;;;;15.13;73.75;98196.28;5074187;28;20439;-66
2023/10/20 02:38:00;;;;;;;4.93;4.03;;;;;;;15.12;73.59;98181.16;5080541;28;20071;-66
2023/10/20 02:40:28;;;;;;;9.75;5.47;;;;;;;15.11;73.81;98180.38;5080369;28;20044;-66
2023/10/20 02:42:56;;;;;;;7.15;4.65;;;;;;;15.12;73.61;98175.75;5068217;28;20064;-66
2023/10/20 02:45:24;;;;;;;6.28;4.95;;;;;;;15.11;73.50;98174.94;5074607;28;20044;-66
2023/10/20 02:47:52;;;;;;;8.57;5.82;;;;;;;15.08;73.60;98156.66;5077175;28;20147;-66
2023/10/20 02:50:20;;;;;;;8.30;4.80;;;;;;;15.11;73.71;98149.81;5079205;28;20056;-66
2023/10/20 02:52:49;;;;;;;6.18;4.88;;;;;;;15.11;73.59;98145.19;5081993;28;20115;-66
2023/10/20 02:55:17;;;;;;;7.03;5.47;;;;;;;15.11;73.75;98142.50;5077736;28;20463;-66
2023/10/20 02:57:45;;;;;;;6.72;4.88;;;;;;;15.11;73.66;98133.59;5077591;28;20079;-66
2023/10/20 03:00:18;;;;;;;6.68;5.05;;;;;;;15.10;73.48;98132.00;5071873;28;20037;-66
2023/10/20 03:02:48;;;;;;;9.18;6.13;;;;;;;15.10;73.82;98113.06;5076760;28;20055;-66
2023/10/20 03:05:16;;;;;;;6.78;5.28;;;;;;;15.00;73.81;98083.63;5081619;28;20040;-66
2023/10/20 03:07:45;;;;;;;6.40;5.03;;;;;;;15.10;73.84;98091.41;5068275;28;20119;-67
2023/10/20 03:10:15;;;;;;;5.93;4.45;;;;;;;15.04;73.87;98089.97;5076718;28;20412;-66
2023/10/20 03:12:42;;;;;;;7.15;5.40;;;;;;;15.10;73.85;98103.03;5079288;28;20079;-66
2023/10/20 03:15:11;;;;;;;6.22;5.28;;;;;;;15.09;73.93;98106.84;5072513;28;20048;-67
2023/10/20 03:17:39;;;;;;;7.38;4.93;;;;;;;15.10;73.87;98110.34;5077723;28;20048;-67
2023/10/20 03:20:09;;;;;;;7.70;5.13;;;;;;;15.09;73.66;98112.25;5078883;28;20458;-66
2023/10/20 03:22:37;;;;;;;7.03;4.55;;;;;;;15.09;73.60;98097.94;5072991;28;20059;-66
2023/10/20 03:25:07;;;;;;;7.53;4.63;;;;;;;15.08;73.73;98097.13;5077094;28;20041;-66
2023/10/20 03:27:37;;;;;;;7.97;5.82;;;;;;;15.09;73.86;98087.91;5078759;28;20070;-66
2023/10/20 03:30:06;;;;;;;7.93;5.30;;;;;;;15.09;73.78;98079.78;5074706;28;20041;-66
2023/10/20 03:32:35;;;;;;;7.25;5.10;;;;;;;15.09;73.81;98073.59;5073423;28;20045;-66
2023/10/20 03:35:03;;;;;;;9.73;5.60;;;;;;;15.09;73.82;98060.06;5072241;28;20065;-66
2023/10/20 03:37:31;;;;;;;7.95;5.70;;;;;;;15.07;73.73;98057.69;5073882;28;20490;-66
2023/10/20 03:39:59;;;;;;;7.35;5.20;;;;;;;15.10;73.84;98067.88;5076602;28;20091;-66
2023/10/20 03:42:27;;;;;;;7.68;5.53;;;;;;;15.09;73.81;98068.97;5079459;28;20432;-67
2023/10/20 03:44:56;;;;;;;5.63;4.70;;;;;;;15.09;73.67;98068.19;5080259;28;20056;-66
2023/10/20 03:47:27;;;;;;;6.50;4.90;;;;;;;15.10;73.77;98067.06;5078156;28;20079;-66
2023/10/20 03:49:57;;;;;;;9.20;5.10;;;;;;;15.10;73.80;98062.44;5077662;28;20044;-66
2023/10/20 03:52:28;;;;;;;8.05;5.50;;;;;;;15.10;73.85;98046.22;5077649;28;20407;-67
2023/10/20 03:54:56;;;;;;;6.90;5.13;;;;;;;15.10;73.91;98035.41;5077411;28;20044;-66
2023/10/20 03:57:23;;;;;;;7.43;4.90;;;;;;;15.10;74.07;98038.09;5078372;28;20048;-67
2023/10/20 03:59:51;;;;;;;11.73;5.85;;;;;;;15.10;74.17;98045.44;5076665;28;20048;-67
2023/10/20 04:02:21;;;;;;;8.05;5.22;;;;;;;15.10;74.19;98042.72;5081933;28;20052;-66
2023/10/20 04:04:49;;;;;;;8.90;6.47;;;;;;;15.09;74.55;98039.22;5080633;28;20048;-66
2023/10/20 04:07:17;;;;;;;8.32;6.47;;;;;;;15.09;74.39;98039.22;5078467;28;20053;-66
2023/10/20 04:09:45;;;;;;;8.20;5.25;;;;;;;15.09;74.84;98023.00;5080578;28;20053;-66
2023/10/20 04:12:15;;;;;;;8.18;5.63;;;;;;;15.10;74.38;98018.38;5071644;28;20068;-66
2023/10/20 04:14:44;;;;;;;8.70;5.38;;;;;;;15.09;74.46;98014.09;5081333;28;20052;-66
2023/10/20 04:17:12;;;;;;;7.07;5.63;;;;;;;15.09;74.51;98014.88;5074571;28;20076;-67
2023/10/20 04:19:41;;;;;;;6.80;5.53;;;;;;;15.08;74.39;97997.06;5080400;28;20068;-67
2023/10/20 04:22:13;;;;;;;8.80;6.60;;;;;;;15.09;74.60;97993.25;5077332;28;20057;-67
2023/10/20 04:24:41;;;;;;;8.05;5.47;;;;;;;15.09;74.52;97990.53;5083122;28;20075;-67
2023/10/20 04:27:20;;;;;;;7.78;5.70;;;;;;;15.08;74.55;97971.91;5082328;28;20540;-67
2023/10/20 04:41:50;;;;;;;7.95;6.05;;;;;;;15.08;74.46;97972.72;5080980;28;20040;-67
2023/10/20 04:43:42;;;;;;;8.00;6.25;;;;;;;15.06;75.17;97944.41;5081641;28;20129;-66
2023/10/20 04:54:50;;;;;;;11.77;7.78;;;;;;;15.06;75.13;97909.22;5016011;28;20077;-66
2023/10/20 04:57:49;;;;;;;8.82;6.78;;;;;;;15.07;75.08;97913.53;5017075;28;20563;-66
2023/10/20 05:00:36;;;;;;;9.13;6.32;;;;;;;15.06;75.27;97906.53;5011302;28;20114;-66
2023/10/20 05:06:05;;;;;;;10.20;7.00;;;;;;;15.05;75.27;97886.81;5004323;28;20136;-66
2023/10/20 05:08:34;;;;;;;10.55;7.43;;;;;;;15.05;75.88;97880.59;5016788;28;20085;-66
2023/10/20 05:11:02;;;;;;;8.95;6.95;;;;;;;15.04;75.25;97879.00;5016665;28;20185;-66
2023/10/20 05:13:32;;;;;;;9.82;7.07;;;;;;;15.04;75.03;97887.13;5017774;28;20041;-66
2023/10/20 05:16:00;;;;;;;9.73;7.60;;;;;;;14.98;75.29;97872.97;5015310;28;20049;-66
2023/10/20 05:18:28;;;;;;;11.57;6.55;;;;;;;15.05;75.11;97872.47;4319675;28;10000920;-68
2023/10/20 05:20:56;;;;;;;11.10;7.45;;;;;;;15.04;75.04;97860.88;5016269;28;20165;-68
2023/10/20 05:23:24;;;;;;;10.18;7.80;;;;;;;15.04;75.15;97857.38;5013833;28;20084;-67
2023/10/20 05:25:53;;;;;;;11.30;7.43;;;;;;;15.04;74.98;97843.84;5041352;28;20048;-67
2023/10/20 05:28:21;;;;;;;9.32;7.45;;;;;;;15.05;74.96;97850.84;5091614;28;20121;-67
2023/10/20 05:30:49;;;;;;;8.43;6.40;;;;;;;15.03;74.76;97856.59;5094361;28;20093;-66
2023/10/20 05:33:16;;;;;;;11.93;7.47;;;;;;;15.02;75.25;97860.41;5100747;28;20071;-66
2023/10/20 05:35:44;;;;;;;8.93;7.05;;;;;;;15.02;74.99;97865.81;5091225;28;20056;-62
2023/10/20 05:38:12;;;;;;;8.73;6.97;;;;;;;15.03;74.85;97877.44;5090853;28;20052;-62
2023/10/20 05:40:40;;;;;;;8.02;6.15;;;;;;;15.02;74.60;97876.63;5090953;28;20082;-62
2023/10/20 05:43:09;;;;;;;11.05;6.53;;;;;;;15.03;74.96;97869.31;5099558;28;20093;-62
2023/10/20 05:45:38;;;;;;;10.13;7.60;;;;;;;15.03;74.84;97858.50;5089916;28;20063;-63
2023/10/20 05:48:07;;;;;;;11.43;6.75;;;;;;;15.02;74.80;97860.41;5091648;28;20051;-66
2023/10/20 05:50:36;;;;;;;8.25;5.82;;;;;;;15.02;74.84;97851.50;5093571;28;20044;-66
2023/10/20 05:53:04;;;;;;;9.40;6.53;;;;;;;15.00;75.06;97846.41;5091124;28;20059;-66
2023/10/20 05:55:33;;;;;;;8.52;7.35;;;;;;;15.03;74.94;97847.66;5092868;28;20540;-67
2023/10/20 05:58:02;;;;;;;11.88;8.85;;;;;;;15.03;75.37;97844.97;5080565;28;20152;-65
2023/10/20 06:00:31;;;;;;;10.73;7.30;;;;;;;15.02;75.11;97840.69;5074274;28;20044;-64
2023/10/20 06:03:06;;;;;;;9.68;7.53;;;;;;;15.02;74.98;97832.56;5078268;28;20134;-64
2023/10/20 06:05:36;;;;;;;10.45;7.50;;;;;;;15.03;75.06;97837.66;5077790;28;20564;-64
2023/10/20 06:08:05;;;;;;;10.15;7.90;;;;;;;15.03;74.76;97834.94;5075707;28;20492;-64
2023/10/20 06:10:32;;;;;;;8.02;6.43;;;;;;;15.03;74.81;97826.03;5070722;28;20664;-64
2023/10/20 06:13:00;;;;;;;9.70;7.30;;;;;;;15.02;74.73;97829.84;5072913;28;20049;-65
2023/10/20 06:15:28;;;;;;;12.13;7.00;;;;;;;14.90;74.73;97825.13;5076240;28;20097;-67
2023/10/20 06:17:57;;;;;;;9.93;7.50;;;;;;;15.02;74.51;97852.28;5077529;28;20113;-65
2023/10/20 06:20:25;;;;;;;9.13;7.03;;;;;;;15.02;74.73;97851.50;5076464;28;20300;-66
2023/10/20 06:22:53;;;;;;;11.02;7.25;;;;;;;15.03;74.80;97844.97;5075324;28;20090;-67
2023/10/20 06:25:21;;;;;;;10.18;6.63;;;;;;;15.03;74.47;97834.16;5075623;28;20048;-66
2023/10/20 06:27:49;;;;;;;12.00;6.25;;;;;;;15.02;74.64;97830.66;5074158;28;20048;-67
2023/10/20 06:30:21;;;;;;;9.15;6.95;;;;;;;15.02;74.54;97838.75;5070654;28;20106;-66
2023/10/20 06:33:11;;;;;;;10.55;6.88;;;;;;;15.03;74.40;97834.94;5071931;28;20151;-65
2023/10/20 06:35:50;;;;;;;8.00;6.53;;;;;;;15.02;74.47;97835.25;5075235;28;20056;-65
2023/10/20 06:38:30;;;;;;;9.38;6.43;;;;;;;15.02;74.48;97843.38;5084778;28;20368;-67
2023/10/20 06:40:58;;;;;;;9.00;6.63;;;;;;;15.03;74.74;97842.25;5076224;28;20052;-67
2023/10/20 06:43:26;;;;;;;9.35;6.80;;;;;;;15.02;74.68;97838.75;5076562;28;20040;-66
2023/10/20 06:45:57;;;;;;;9.38;6.63;;;;;;;15.02;74.64;97829.84;5077061;28;20496;-66
2023/10/20 06:48:26;;;;;;;8.02;6.53;;;;;;;15.02;74.53;97835.25;5073893;28;20045;-65
2023/10/20 06:50:55;;;;;;;8.93;6.80;;;;;;;15.02;74.75;97835.25;5081900;28;20045;-66
2023/10/20 06:53:23;;;;;;;7.85;5.97;;;;;;;15.00;74.73;97813.97;5087291;28;20521;-65
2023/10/20 06:55:52;;;;;;;11.10;7.15;;;;;;;14.90;75.34;97800.78;5072624;28;20053;-66
2023/10/20 06:58:36;;;;;;;11.93;6.95;;;;;;;15.02;75.49;97819.03;5082400;28;20147;-65
2023/10/20 07:01:05;;;;;;;10.98;8.32;;;;;;;15.02;75.66;97813.63;5079418;28;20658;-63
2023/10/20 07:03:34;;;;;;;11.77;7.97;;;;;;;15.01;75.78;97820.16;5079439;28;20056;-63
2023/10/20 07:06:07;;;;;;;11.13;8.77;;;;;;;15.02;75.84;97824.44;5074933;28;20052;-64
2023/10/20 07:08:35;;;;;;;9.07;7.40;;;;;;;15.01;75.46;97825.56;5078357;28;20052;-66
2023/10/20 07:11:03;;;;;;;11.95;8.48;;;;;;;15.01;75.94;97825.56;5073285;28;20054;-66
2023/10/20 07:13:32;;;;;;;9.18;6.78;;;;;;;15.00;75.66;97821.28;5073539;28;20053;-64
2023/10/20 07:16:00;;;;;;;8.60;7.03;;;;;;;14.99;75.54;97817.78;5074896;28;20064;-66
2023/10/20 07:18:28;;;;;;;10.05;7.68;;;;;;;14.98;75.48;97808.88;5076061;28;20403;-65
2023/10/20 07:20:56;;;;;;;10.85;8.90;;;;;;;14.97;75.92;97809.19;5077798;28;20146;-67
2023/10/20 07:23:27;;;;;;;9.55;7.50;;;;;;;14.88;75.59;97797.63;5076393;28;20059;-66
2023/10/20 07:25:55;;;;;;;13.02;10.10;;;;;;;14.97;75.80;97812.69;5078172;28;20157;-66
2023/10/20 07:28:22;;;;;;;12.02;8.95;;;;;;;14.97;76.16;97807.28;5078561;28;20056;-66
2023/10/20 07:30:50;;;;;;;10.80;9.68;;;;;;;15.01;76.05;97803.94;5079705;28;20044;-65
2023/10/20 07:33:18;;;;;;;11.68;9.10;;;;;;;15.02;76.10;97805.50;5078381;28;20479;-65
2023/10/20 07:35:46;;;;;;;10.88;9.77;;;;;;;15.02;76.13;97808.22;5075610;28;20056;-65
2023/10/20 07:38:15;;;;;;;12.65;9.32;;;;;;;15.01;75.61;97806.63;5085855;28;20429;-65
2023/10/20 07:40:44;;;;;;;12.38;9.98;;;;;;;15.03;75.98;97804.41;5070838;28;20604;-62
2023/10/20 07:43:12;;;;;;;12.88;11.10;;;;;;;15.01;76.13;97795.81;5071618;28;20053;-66
2023/10/20 07:45:41;;;;;;;10.90;9.57;;;;;;;15.00;75.91;97797.72;5077724;28;20048;-65
2023/10/20 07:48:10;;;;;;;11.48;10.15;;;;;;;15.02;75.91;97789.28;5077324;28;20064;-65
2023/10/20 07:50:39;;;;;;;12.02;10.65;;;;;;;15.02;75.90;97792.78;5073045;28;20049;-63
2023/10/20 07:53:10;;;;;;;10.88;9.52;;;;;;;15.03;75.96;97786.25;5072420;28;20502;-65
2023/10/20 07:55:37;;;;;;;13.30;11.05;;;;;;;15.03;75.92;97780.84;5076512;28;20076;-66
2023/10/20 07:58:08;;;;;;;12.95;10.77;;;;;;;15.04;76.15;97774.31;5080189;28;20057;-63
2023/10/20 08:00:37;;;;;;;16.85;11.32;;;;;;;15.04;76.09;97760.00;5075107;28;20049;-62
2023/10/20 08:03:05;;;;;;;13.00;9.25;;;;;;;15.05;76.07;97762.38;5077854;28;20296;-63
2023/10/20 08:05:35;;;;;;;11.43;8.75;;;;;;;15.08;75.70;97760.94;5080711;28;20044;-63
2023/10/20 08:08:04;;;;;;;11.88;9.77;;;;;;;15.10;75.63;97764.13;5074053;28;20056;-65
2023/10/20 08:10:32;;;;;;;11.77;8.75;;;;;;;15.11;75.69;97771.91;5075416;28;20114;-66
2023/10/20 08:13:01;;;;;;;10.35;9.10;;;;;;;15.03;75.98;97755.72;5075962;28;20090;-65
2023/10/20 08:15:31;;;;;;;13.82;9.90;;;;;;;15.14;76.11;97781.28;5074691;28;20092;-64
2023/10/20 08:17:59;;;;;;;11.15;9.52;;;;;;;15.14;75.81;97773.16;5076459;28;20466;-63
2023/10/20 08:20:26;;;;;;;9.43;8.40;;;;;;;15.15;75.82;97769.34;5079187;28;20062;-63
2023/10/20 08:22:54;;;;;;;13.07;9.02;;;;;;;15.14;75.73;97765.84;5073048;28;20051;-63
2023/10/20 08:25:22;;;;;;;10.10;9.10;;;;;;;15.15;75.94;97766.63;5081720;28;20052;-64
2023/10/20 08:27:50;;;;;;;9.45;8.45;;;;;;;15.14;75.80;97770.44;5073973;28;20053;-64
2023/10/20 08:30:20;;;;;;;10.57;8.98;;;;;;;15.17;75.62;97772.50;5076586;28;20052;-64
2023/10/20 08:32:50;;;;;;;10.00;8.25;;;;;;;15.20;76.01;97778.06;5077690;28;20494;-63
2023/10/20 08:35:18;;;;;;;9.85;7.35;;;;;;;15.23;75.80;97773.91;5075269;28;20064;-64
2023/10/20 08:37:46;;;;;;;8.30;7.50;;;;;;;15.24;75.51;97776.28;5078897;28;20048;-64
2023/10/20 08:40:14;;;;;;;8.60;7.30;;;;;;;15.23;75.56;97763.09;5075192;28;20124;-63
2023/10/20 08:42:42;;;;;;;7.97;6.68;;;;;;;15.24;75.76;97757.34;5072857;28;20044;-64
2023/10/20 08:45:13;;;;;;;7.90;7.07;;;;;;;15.24;75.85;97759.25;5074275;28;20583;-65
2023/10/20 08:47:41;;;;;;;7.93;7.13;;;;;;;15.23;76.03;97766.56;5078598;28;20044;-65
2023/10/20 08:50:14;;;;;;;7.65;6.45;;;;;;;15.23;75.88;97761.16;5078215;28;20140;-64
2023/10/20 08:52:44;;;;;;;7.15;6.30;;;;;;;15.22;75.41;97767.69;5075481;28;20116;-64
2023/10/20 08:55:13;;;;;;;8.98;6.82;;;;;;;15.23;75.65;97760.38;5079591;28;20049;-65
2023/10/20 08:57:41;;;;;;;6.18;5.57;;;;;;;15.20;75.60;97759.13;5073243;28;20136;-64
2023/10/20 09:00:19;;;;;;;6.30;5.70;;;;;;;15.20;75.91;97761.03;5082823;28;20052;-65
2023/10/20 09:02:47;;;;;;;9.02;5.60;;;;;;;15.20;75.84;97767.25;5076513;28;20051;-66
2023/10/20 09:05:22;;;;;;;6.13;5.53;;;;;;;15.20;75.96;97766.44;5082700;28;20063;-64
2023/10/20 09:07:54;;;;;;;5.90;5.30;;;;;;;15.19;76.06;97764.84;5079565;28;20269;-64
2023/10/20 09:10:22;;;;;;;6.80;5.13;;;;;;;15.18;75.89;97758.66;5083777;28;20048;-65
2023/10/20 09:12:50;;;;;;;7.25;5.50;;;;;;;15.19;75.81;97770.28;5080436;28;20052;-63
2023/10/20 09:15:18;;;;;;;6.50;5.28;;;;;;;15.17;75.74;97764.38;5080261;28;20056;-65
2023/10/20 09:17:53;;;;;;;4.90;4.38;;;;;;;15.19;75.59;97754.03;5079623;28;20044;-68
2023/10/20 09:20:23;;;;;;;6.03;5.30;;;;;;;15.18;75.74;97747.84;5078003;28;20561;-69
2023/10/20 09:22:51;;;;;;;5.38;4.45;;;;;;;15.19;76.00;97745.91;5076237;28;20048;-75
2023/10/20 09:25:19;;;;;;;5.20;4.70;;;;;;;15.18;76.04;97742.41;5075789;28;20058;-72
2023/10/20 09:27:47;;;;;;;5.30;4.25;;;;;;;15.18;75.97;97736.22;5079973;28;20044;-71
2023/10/20 09:30:16;;;;;;;7.78;4.60;;;;;;;15.17;76.11;97750.88;5081095;28;20098;-69
2023/10/20 09:32:44;;;;;;;5.05;4.55;;;;;;;15.15;76.30;97743.06;5075800;28;20052;-76
2023/10/20 09:35:12;;;;;;;5.45;4.18;;;;;;;15.16;76.62;97749.28;5081176;28;20118;-76
2023/10/20 09:37:42;;;;;;;5.22;4.68;;;;;;;15.15;76.43;97755.81;4727484;28;10000325;-72
2023/10/20 09:40:11;;;;;;;5.28;4.13;;;;;;;15.14;76.23;97746.91;5076254;28;20118;-71
2023/10/20 09:42:51;;;;;;;5.00;3.88;;;;;;;15.14;76.06;97744.19;5072269;28;20280;-74
2023/10/20 09:45:27;;;;;;;4.70;3.75;;;;;;;15.14;76.39;97736.09;5078154;28;20052;-75
2023/10/20 09:48:01;;;;;;;4.68;3.47;;;;;;;15.14;76.31;97744.19;5077661;28;20049;-75
2023/10/20 09:50:31;;;;;;;4.78;3.58;;;;;;;15.13;76.02;97733.72;5070770;28;20465;-76
2023/10/20 09:53:01;;;;;;;5.43;3.72;;;;;;;15.14;76.07;97743.41;5077979;28;20052;-76
2023/10/20 09:55:30;;;;;;;5.45;3.90;;;;;;;15.13;75.87;97739.91;5078240;28;20055;-77
2023/10/20 09:57:59;;;;;;;4.80;3.72;;;;;;;15.14;75.98;97743.41;5073860;28;20093;-75
2023/10/20 10:00:32;;;;;;;4.78;3.20;;;;;;;15.13;75.88;97742.63;5077891;28;20079;-75
2023/10/20 10:03:00;;;;;;;5.38;3.45;;;;;;;15.14;75.73;97740.69;5079588;28;20048;-76
2023/10/20 10:05:30;;;;;;;5.20;3.20;;;;;;;15.14;75.91;97743.41;5079325;28;20458;-74
2023/10/20 10:08:08;;;;;;;3.80;3.20;;;;;;;15.14;75.60;97751.53;5078054;28;20049;-75
2023/10/20 10:10:36;;;;;;;4.88;3.28;;;;;;;15.14;75.76;97743.41;5078669;28;20052;-69
2023/10/20 10:13:05;;;;;;;3.10;2.50;;;;;;;15.13;75.80;97744.53;5077984;28;20044;-77
2023/10/20 10:15:40;;;;;;;2.97;2.55;;;;;;;15.15;75.66;97734.16;5079453;28;20071;-70
2023/10/20 10:18:10;;;;;;;5.65;2.50;;;;;;;15.17;75.69;97729.22;5072953;28;20048;-75
2023/10/20 10:20:45;;;;;;;3.22;2.22;;;;;;;15.17;75.72;97737.34;5079315;28;20147;-68
2023/10/20 10:23:16;;;;;;;2.85;2.22;;;;;;;15.17;75.69;97727.31;5079483;28;20135;-72
2023/10/20 10:25:47;;;;;;;3.65;2.33;;;;;;;15.16;75.76;97728.44;5079461;28;20462;-66
2023/10/20 10:28:15;;;;;;;2.80;1.98;;;;;;;15.16;75.82;97731.13;5082014;28;20053;-71
2023/10/20 10:30:45;;;;;;;2.95;2.25;;;;;;;15.16;75.88;97723.03;5076263;28;20048;-73
2023/10/20 10:33:13;;;;;;;3.17;2.53;;;;;;;15.13;75.87;97715.56;5068829;28;20132;-73
2023/10/20 10:35:41;;;;;;;2.83;1.92;;;;;;;15.16;75.81;97720.31;5075672;28;20467;-71
2023/10/20 10:38:20;;;;;;;2.67;1.95;;;;;;;15.14;75.79;97711.75;5074887;28;20068;-74
2023/10/20 10:40:51;;;;;;;3.65;2.20;;;;;;;15.16;75.99;97711.41;5078849;28;20045;-74
2023/10/20 10:43:19;;;;;;;3.72;2.20;;;;;;;15.14;75.67;97706.31;5075106;28;20059;-74
2023/10/20 10:45:53;;;;;;;2.53;1.83;;;;;;;15.17;75.48;97702.19;5075969;28;20116;-69
2023/10/20 10:48:25;;;;;;;2.70;1.90;;;;;;;15.19;75.65;97687.19;5078028;28;20052;-72
2023/10/20 10:50:53;;;;;;;3.58;2.30;;;;;;;15.32;75.63;97682.66;5076405;28;20067;-72
2023/10/20 10:53:23;;;;;;;2.30;1.67;;;;;;;15.48;75.12;97680.13;5076848;28;20041;-73
2023/10/20 10:55:50;;;;;;;1.88;1.52;;;;;;;15.63;74.73;97683.03;5073376;28;20121;-71
2023/10/20 10:58:19;;;;;;;2.03;1.58;;;;;;;15.83;74.07;97675.22;5081969;28;20048;-71
2023/10/20 11:00:47;;;;;;;1.75;1.60;;;;;;;16.03;73.10;97662.75;5078467;28;20078;-73
2023/10/20 11:03:16;;;;;;;5.25;1.60;;;;;;;16.20;71.94;97673.38;5079060;28;20408;-73
2023/10/20 11:05:44;;;;;;;3.17;1.67;;;;;;;16.23;71.72;97670.78;5078155;28;20067;-72
2023/10/20 11:08:12;;;;;;;2.40;1.40;;;;;;;16.18;71.56;97664.81;5074517;28;20051;-73
2023/10/20 11:10:45;;;;;;;2.17;1.88;;;;;;;16.07;72.18;97671.78;5076304;28;20071;-72
2023/10/20 11:13:15;;;;;;;1.60;1.48;;;;;;;15.99;72.50;97659.91;5078747;28;20044;-73
2023/10/20 11:15:44;;;;;;;2.70;1.40;;;;;;;15.90;72.92;97662.72;5078581;28;20051;-73
2023/10/20 11:18:12;;;;;;;1.50;1.30;;;;;;;15.84;73.03;97647.00;5076222;28;20091;-72
2023/10/20 11:20:43;;;;;;;2.38;1.60;;;;;;;15.77;73.33;97635.91;5076920;28;20041;-68
2023/10/20 11:23:14;;;;;;;1.63;1.35;;;;;;;15.73;73.54;97640.41;5072004;28;20072;-72
2023/10/20 11:25:45;;;;;;;2.20;1.58;;;;;;;15.68;73.93;97637.91;5076487;28;20056;-69
2023/10/20 11:28:13;;;;;;;1.92;1.48;;;;;;;15.63;74.13;97631.59;5078942;28;20059;-71
2023/10/20 11:30:45;;;;;;;2.55;1.63;;;;;;;15.61;74.22;97641.97;5074749;28;20063;-71
2023/10/20 11:33:13;;;;;;;2.30;1.80;;;;;;;15.58;74.42;97631.03;5074596;28;20045;-71
2023/10/20 11:35:44;;;;;;;6.45;2.13;;;;;;;15.57;75.00;97634.88;5076387;28;20056;-71
2023/10/20 11:38:14;;;;;;;2.47;1.75;;;;;;;15.50;74.91;97610.22;5079772;28;20084;-71
2023/10/20 11:40:47;;;;;;;3.60;1.90;;;;;;;15.52;74.77;97625.00;5076697;28;20129;-71
2023/10/20 11:43:15;;;;;;;3.08;1.88;;;;;;;15.51;75.06;97617.22;5079644;28;20044;-71
2023/10/20 11:45:43;;;;;;;3.30;1.65;;;;;;;15.49;74.87;97605.94;5079326;28;20049;-72
2023/10/20 11:48:11;;;;;;;2.33;1.50;;;;;;;15.49;74.89;97606.72;5076126;28;20481;-71
2023/10/20 11:50:39;;;;;;;2.33;1.70;;;;;;;15.47;75.10;97603.56;5081585;28;20090;-70
2023/10/20 11:53:07;;;;;;;2.15;1.40;;;;;;;15.45;74.92;97603.09;5080234;28;20041;-72
2023/10/20 11:55:36;;;;;;;2.00;1.77;;;;;;;15.44;74.68;97614.25;5070655;28;20059;-70
2023/10/20 11:58:05;;;;;;;3.58;1.90;;;;;;;15.40;74.90;97594.41;5077179;28;20052;-70
2023/10/20 12:00:33;;;;;;;1.75;1.40;;;;;;;15.43;75.09;97597.25;5082664;28;20048;-72
2023/10/20 12:03:01;;;;;;;1.73;1.58;;;;;;;15.42;75.60;97595.66;5081443;28;20052;-69
2023/10/20 12:05:33;;;;;;;2.42;1.60;;;;;;;15.40;75.28;97586.28;5080125;28;20079;-69